Time;durP1;ratioP1;P1;durP2;ratioP2;P2;SDS_P1;SDS_P2;PMS_P1;PMS_P2;Temp;Humidity;BMP_temperature;BMP_pressure;BME280_temperature;BME280_humidity;BME280_pressure;Samples;Min_cycle;Max_cycle;Signal;HPM_P1;HPM_P2
2023/10/25 00:02:25;;;;;;;27.20;13.68;;;16.10;99.90;;;;;;5083947;28;20094;-73
2023/10/25 00:04:55;;;;;;;28.25;13.38;;;15.90;99.90;;;;;;5081005;28;20056;-75
2023/10/25 00:07:40;;;;;;;27.92;13.65;;;15.90;99.90;;;;;;5085775;28;20031;-75
2023/10/25 00:10:10;;;;;;;29.75;12.05;;;16.00;99.90;;;;;;5085272;28;20042;-75
2023/10/25 00:12:37;;;;;;;28.95;12.10;;;15.90;99.90;;;;;;5062723;28;20041;-74
2023/10/25 00:15:06;;;;;;;28.33;12.73;;;15.90;99.90;;;;;;5085481;28;20054;-74
2023/10/25 00:17:33;;;;;;;27.42;13.30;;;15.90;99.90;;;;;;5088264;28;20032;-75
2023/10/25 00:20:00;;;;;;;27.33;13.70;;;16.10;99.90;;;;;;5082410;28;20392;-74
2023/10/25 00:22:27;;;;;;;27.88;14.18;;;16.00;99.90;;;;;;5088763;28;20036;-76
2023/10/25 00:24:55;;;;;;;31.65;13.85;;;16.00;99.90;;;;;;5072520;28;20036;-74
2023/10/25 00:27:22;;;;;;;31.63;15.43;;;16.00;99.90;;;;;;5087107;28;20063;-74
2023/10/25 00:29:49;;;;;;;27.15;14.55;;;15.90;99.90;;;;;;5088090;28;20182;-74
2023/10/25 00:32:17;;;;;;;27.58;14.20;;;15.40;99.90;;;;;;5090256;28;20032;-76
2023/10/25 00:34:44;;;;;;;24.70;14.40;;;15.20;99.90;;;;;;5086321;28;20040;-79
2023/10/25 00:37:11;;;;;;;36.17;14.75;;;15.40;99.90;;;;;;5087958;28;20115;-76
2023/10/25 00:39:38;;;;;;;31.02;13.90;;;15.60;99.90;;;;;;5086427;28;20051;-74
2023/10/25 00:42:06;;;;;;;35.97;14.00;;;15.50;99.90;;;;;;5083231;28;20058;-75
2023/10/25 00:44:34;;;;;;;32.65;13.98;;;15.60;99.90;;;;;;5084153;28;20048;-74
2023/10/25 00:47:02;;;;;;;20.85;12.18;;;15.70;99.90;;;;;;5084274;28;20040;-74
2023/10/25 00:49:29;;;;;;;22.08;11.27;;;15.80;99.90;;;;;;5083486;28;20533;-73
2023/10/25 00:51:57;;;;;;;27.35;13.13;;;16.00;99.90;;;;;;5089127;28;20495;-75
2023/10/25 00:54:24;;;;;;;18.05;9.68;;;16.00;99.90;;;;;;5082077;28;20043;-75
2023/10/25 00:56:55;;;;;;;21.75;9.57;;;15.90;99.90;;;;;;5086076;28;20063;-76
2023/10/25 00:59:23;;;;;;;19.85;8.65;;;15.90;99.90;;;;;;5082957;28;20104;-77
2023/10/25 01:02:08;;;;;;;18.42;9.13;;;15.70;99.90;;;;;;5070707;28;20024;-76
2023/10/25 01:04:35;;;;;;;21.08;9.20;;;15.50;99.90;;;;;;5084504;28;20039;-77
2023/10/25 01:07:03;;;;;;;15.00;7.43;;;15.70;99.90;;;;;;5080891;28;20041;-75
2023/10/25 01:09:30;;;;;;;15.43;6.78;;;14.90;99.90;;;;;;5088174;28;20044;-74
2023/10/25 01:12:16;;;;;;;15.38;7.47;;;14.70;99.90;;;;;;5085860;28;20372;-76
2023/10/25 01:14:43;;;;;;;16.65;8.68;;;14.60;99.90;;;;;;5085921;28;20207;-75
2023/10/25 01:17:10;;;;;;;15.35;7.82;;;14.70;99.90;;;;;;5081245;28;20036;-76
2023/10/25 01:19:38;;;;;;;16.00;7.80;;;15.00;99.90;;;;;;5085582;28;20066;-76
2023/10/25 01:22:05;;;;;;;20.08;7.10;;;15.40;99.90;;;;;;5083432;28;20032;-76
2023/10/25 01:24:32;;;;;;;23.27;8.80;;;15.60;99.90;;;;;;5086975;28;20036;-76
2023/10/25 01:27:00;;;;;;;13.85;6.93;;;15.70;99.90;;;;;;5081960;28;20035;-76
2023/10/25 01:29:27;;;;;;;16.77;7.57;;;15.70;99.90;;;;;;5068683;28;20051;-74
2023/10/25 01:31:54;;;;;;;14.90;7.47;;;15.80;99.90;;;;;;5054210;28;20499;-76
2023/10/25 01:34:22;;;;;;;21.20;7.40;;;15.90;99.90;;;;;;5069129;28;20496;-75
2023/10/25 01:37:07;;;;;;;24.23;8.35;;;15.90;99.90;;;;;;5079882;28;20700;-75
2023/10/25 01:39:34;;;;;;;15.68;8.40;;;15.80;99.90;;;;;;5064874;28;20098;-75
2023/10/25 01:42:01;;;;;;;15.77;8.65;;;15.60;99.90;;;;;;5083390;28;20028;-75
2023/10/25 01:44:28;;;;;;;18.48;8.30;;;15.60;99.90;;;;;;5086088;28;20099;-74
2023/10/25 01:46:56;;;;;;;17.17;8.05;;;15.60;99.90;;;;;;5082379;28;20032;-75
2023/10/25 01:49:23;;;;;;;21.33;8.95;;;15.60;99.90;;;;;;5082977;28;20044;-74
2023/10/25 01:51:51;;;;;;;17.98;7.88;;;15.50;99.90;;;;;;5087435;28;20044;-76
2023/10/25 01:54:18;;;;;;;15.40;7.30;;;15.70;99.90;;;;;;5079750;28;20040;-74
2023/10/25 01:56:45;;;;;;;19.98;8.30;;;15.70;99.90;;;;;;5085669;28;20129;-74
2023/10/25 01:59:12;;;;;;;17.65;8.35;;;15.60;99.90;;;;;;5086772;28;20032;-74
2023/10/25 02:01:39;;;;;;;20.35;8.25;;;15.60;99.90;;;;;;5071480;28;20105;-75
2023/10/25 02:04:08;;;;;;;20.38;8.63;;;15.70;99.90;;;;;;5081613;28;20070;-75
2023/10/25 02:06:36;;;;;;;19.33;8.02;;;15.70;99.90;;;;;;5086651;28;20083;-75
2023/10/25 02:09:03;;;;;;;19.20;9.55;;;15.50;99.90;;;;;;5069174;28;20698;-73
2023/10/25 02:11:31;;;;;;;20.60;8.55;;;15.50;99.90;;;;;;5051538;28;20105;-74
2023/10/25 02:13:58;;;;;;;20.48;9.77;;;15.50;99.90;;;;;;5083102;28;20036;-75
2023/10/25 02:16:26;;;;;;;17.23;8.45;;;15.50;99.90;;;;;;5089295;28;20413;-73
2023/10/25 02:18:54;;;;;;;17.95;8.70;;;15.60;99.90;;;;;;5070501;28;20074;-73
2023/10/25 02:21:21;;;;;;;22.20;9.52;;;15.60;99.90;;;;;;5086022;28;20059;-73
2023/10/25 02:24:06;;;;;;;22.20;9.68;;;15.60;99.90;;;;;;5085311;28;20031;-74
2023/10/25 02:26:51;;;;;;;25.25;8.98;;;15.40;99.90;;;;;;5080983;28;20395;-75
2023/10/25 02:29:19;;;;;;;20.63;7.82;;;15.30;99.90;;;;;;5089063;28;20469;-73
2023/10/25 02:31:46;;;;;;;26.65;8.18;;;15.00;99.90;;;;;;5087032;28;20055;-74
2023/10/25 02:34:13;;;;;;;20.70;8.05;;;15.10;99.90;;;;;;5091419;28;20028;-74
2023/10/25 02:36:41;;;;;;;18.02;7.60;;;15.10;99.90;;;;;;5088593;28;20125;-73
2023/10/25 02:39:10;;;;;;;20.60;8.13;;;15.00;99.90;;;;;;5090520;28;20048;-74
2023/10/25 02:41:37;;;;;;;23.65;10.18;;;15.10;99.90;;;;;;5086368;28;20119;-74
2023/10/25 02:44:05;;;;;;;28.25;10.85;;;15.20;99.90;;;;;;5087746;28;20044;-73
2023/10/25 02:46:33;;;;;;;18.85;10.45;;;14.90;99.90;;;;;;5074337;28;20130;-74
2023/10/25 02:49:00;;;;;;;26.15;10.38;;;14.80;99.90;;;;;;5084975;28;20064;-74
2023/10/25 02:51:27;;;;;;;25.73;10.60;;;14.80;99.90;;;;;;5087771;28;20036;-75
2023/10/25 02:53:55;;;;;;;25.13;10.18;;;14.60;99.90;;;;;;5071137;28;20129;-73
2023/10/25 02:56:22;;;;;;;25.20;10.23;;;14.50;99.90;;;;;;5088059;28;20039;-74
2023/10/25 02:59:07;;;;;;;20.30;10.18;;;14.60;99.90;;;;;;5072041;28;20043;-75
2023/10/25 03:01:51;;;;;;;21.95;9.68;;;14.60;99.90;;;;;;5091858;28;20024;-75
2023/10/25 03:04:18;;;;;;;23.55;9.95;;;14.50;99.90;;;;;;5084286;28;20098;-74
2023/10/25 03:06:47;;;;;;;22.88;9.18;;;14.50;99.90;;;;;;5089661;28;20124;-74
2023/10/25 03:09:14;;;;;;;21.90;10.13;;;14.50;99.90;;;;;;5089776;28;20040;-73
2023/10/25 03:11:42;;;;;;;16.95;9.68;;;14.20;99.90;;;;;;5087648;28;20097;-74
2023/10/25 03:14:09;;;;;;;21.75;11.32;;;14.30;99.90;;;;;;5069360;28;20398;-73
2023/10/25 03:16:36;;;;;;;19.92;10.18;;;14.30;99.90;;;;;;5090271;28;20058;-74
2023/10/25 03:19:04;;;;;;;21.98;10.20;;;14.30;99.90;;;;;;5088306;28;20033;-74
2023/10/25 03:21:31;;;;;;;23.35;9.77;;;14.40;99.90;;;;;;5087273;28;20054;-75
2023/10/25 03:23:59;;;;;;;23.50;10.75;;;14.50;99.90;;;;;;5086877;28;20036;-74
2023/10/25 03:26:26;;;;;;;22.58;9.68;;;14.40;99.90;;;;;;5085053;28;20105;-75
2023/10/25 03:28:54;;;;;;;22.08;10.05;;;14.40;99.90;;;;;;5088601;28;20044;-73
2023/10/25 03:31:21;;;;;;;23.52;9.95;;;14.20;99.90;;;;;;5089453;28;20062;-74
2023/10/25 03:33:49;;;;;;;19.85;9.63;;;14.30;99.90;;;;;;5087236;28;20398;-74
2023/10/25 03:36:16;;;;;;;23.50;9.73;;;14.30;99.90;;;;;;5086389;28;20048;-73
2023/10/25 03:38:43;;;;;;;19.92;10.25;;;14.20;99.90;;;;;;5091159;28;20036;-73
2023/10/25 03:41:11;;;;;;;17.08;9.40;;;14.40;99.90;;;;;;5086687;28;20090;-74
2023/10/25 03:43:38;;;;;;;21.90;9.98;;;14.50;99.90;;;;;;5088657;28;20127;-74
2023/10/25 03:46:07;;;;;;;22.20;9.73;;;14.40;99.90;;;;;;5085160;28;20086;-74
2023/10/25 03:48:36;;;;;;;23.45;10.10;;;14.30;99.90;;;;;;5069226;28;20070;-75
2023/10/25 03:51:07;;;;;;;19.73;9.45;;;14.40;99.90;;;;;;5081104;28;20369;-75
2023/10/25 03:53:36;;;;;;;18.80;9.02;;;14.20;99.90;;;;;;5087256;28;20043;-75
2023/10/25 03:56:03;;;;;;;19.90;10.70;;;14.10;99.90;;;;;;5083058;28;20075;-75
2023/10/25 03:58:31;;;;;;;24.85;9.45;;;14.10;99.90;;;;;;5088244;28;20123;-75
2023/10/25 04:00:59;;;;;;;22.42;9.32;;;14.30;99.90;;;;;;5087334;28;20155;-75
2023/10/25 04:03:28;;;;;;;18.13;9.30;;;14.40;99.90;;;;;;5070071;28;20130;-77
2023/10/25 04:05:55;;;;;;;18.25;9.00;;;14.60;99.90;;;;;;5084428;28;20086;-75
2023/10/25 04:08:23;;;;;;;23.40;10.48;;;14.40;99.90;;;;;;5089327;28;20146;-74
2023/10/25 04:10:54;;;;;;;21.30;9.50;;;14.20;99.90;;;;;;5085816;28;20036;-75
2023/10/25 04:13:22;;;;;;;18.77;9.10;;;14.10;99.90;;;;;;5087191;28;20040;-75
2023/10/25 04:16:00;;;;;;;20.63;9.13;;;14.40;99.90;;;;;;5087901;28;20040;-73
2023/10/25 04:18:45;;;;;;;24.33;9.73;;;14.60;99.90;;;;;;5085093;28;20036;-74
2023/10/25 04:21:13;;;;;;;17.08;8.35;;;14.60;99.90;;;;;;5087822;28;20040;-73
2023/10/25 04:23:40;;;;;;;22.55;8.40;;;14.50;99.90;;;;;;5069755;28;20051;-74
2023/10/25 04:26:12;;;;;;;17.63;7.78;;;14.70;99.90;;;;;;5086242;28;20463;-75
2023/10/25 04:28:41;;;;;;;16.98;7.53;;;15.00;99.90;;;;;;5087336;28;20394;-74
2023/10/25 04:31:10;;;;;;;17.88;8.13;;;15.00;99.90;;;;;;5063943;28;20813;-72
2023/10/25 04:33:38;;;;;;;18.90;7.93;;;15.20;99.90;;;;;;5080726;28;20040;-74
2023/10/25 04:36:06;;;;;;;25.35;8.38;;;15.40;99.90;;;;;;5078052;28;20043;-73
2023/10/25 04:38:34;;;;;;;17.23;7.22;;;15.50;99.90;;;;;;5077291;28;20036;-75
2023/10/25 04:41:01;;;;;;;12.95;7.38;;;15.60;99.90;;;;;;5061799;28;20044;-76
2023/10/25 04:43:28;;;;;;;20.50;8.48;;;15.60;99.90;;;;;;5083596;28;20557;-75
2023/10/25 04:45:58;;;;;;;22.55;8.13;;;15.60;99.90;;;;;;5087068;28;20072;-75
2023/10/25 04:48:25;;;;;;;21.90;8.50;;;15.70;99.90;;;;;;5079246;28;20027;-75
2023/10/25 04:50:52;;;;;;;23.25;8.68;;;15.60;99.90;;;;;;5087467;28;20044;-74
2023/10/25 04:53:20;;;;;;;22.33;8.88;;;15.50;99.90;;;;;;5089921;28;20032;-75
2023/10/25 04:55:47;;;;;;;19.58;7.60;;;15.30;99.90;;;;;;5083518;28;20460;-74
2023/10/25 04:58:14;;;;;;;18.05;8.25;;;15.20;99.90;;;;;;5084718;28;20032;-74
2023/10/25 05:00:42;;;;;;;21.88;8.73;;;15.20;99.90;;;;;;5085390;28;20092;-75
2023/10/25 05:03:11;;;;;;;18.70;8.02;;;15.10;99.90;;;;;;5085727;28;20040;-77
2023/10/25 05:05:39;;;;;;;26.15;13.63;;;15.20;99.90;;;;;;5073809;28;20538;-72
2023/10/25 05:08:10;;;;;;;123.72;67.22;;;15.20;99.90;;;;;;5082971;28;20071;-74
2023/10/25 05:10:37;;;;;;;23.25;13.40;;;15.50;99.90;;;;;;5083013;28;20062;-73
2023/10/25 05:13:05;;;;;;;20.58;12.32;;;15.20;99.90;;;;;;5060761;28;20441;-74
2023/10/25 05:15:35;;;;;;;23.10;8.98;;;15.00;99.90;;;;;;5080553;28;20047;-74
2023/10/25 05:18:03;;;;;;;67.30;34.60;;;15.00;99.90;;;;;;5061726;28;20603;-71
2023/10/25 05:20:31;;;;;;;22.20;12.70;;;15.40;99.90;;;;;;5084484;28;20063;-77
2023/10/25 05:23:03;;;;;;;100.18;58.45;;;15.50;99.90;;;;;;5086626;28;20032;-75
2023/10/25 05:25:49;;;;;;;25.30;13.88;;;15.50;99.90;;;;;;5082916;28;20198;-74
2023/10/25 05:28:17;;;;;;;26.60;11.30;;;15.00;99.90;;;;;;5080420;28;20480;-74
2023/10/25 05:30:44;;;;;;;24.90;9.07;;;15.00;99.90;;;;;;5082605;28;20399;-72
2023/10/25 05:33:13;;;;;;;21.05;9.15;;;14.70;99.90;;;;;;5079252;28;20126;-74
2023/10/25 05:35:40;;;;;;;21.33;8.95;;;14.70;99.90;;;;;;5082722;28;20036;-73
2023/10/25 05:38:08;;;;;;;20.80;9.40;;;14.40;99.90;;;;;;5076741;28;20372;-73
2023/10/25 05:40:35;;;;;;;16.20;9.20;;;14.70;99.90;;;;;;5085741;28;20042;-73
2023/10/25 05:43:06;;;;;;;18.17;10.18;;;15.10;99.90;;;;;;5084136;28;20082;-73
2023/10/25 05:45:34;;;;;;;23.05;10.40;;;15.40;99.90;;;;;;5080438;28;20048;-74
2023/10/25 05:48:02;;;;;;;24.15;10.20;;;15.50;99.90;;;;;;5076654;28;20036;-77
2023/10/25 05:50:30;;;;;;;33.53;10.40;;;15.60;99.90;;;;;;5087991;28;20039;-78
2023/10/25 05:52:57;;;;;;;20.55;9.27;;;15.60;99.90;;;;;;5084618;28;20043;-74
2023/10/25 05:55:25;;;;;;;31.65;15.65;;;15.60;99.90;;;;;;5083735;28;20119;-75
2023/10/25 05:57:52;;;;;;;54.15;33.50;;;15.70;99.90;;;;;;5085727;28;20487;-77
2023/10/25 06:00:20;;;;;;;28.77;13.10;;;15.70;99.90;;;;;;5082968;28;20476;-78
2023/10/25 06:02:51;;;;;;;23.88;10.65;;;15.60;99.90;;;;;;5082707;28;20046;-78
2023/10/25 06:05:19;;;;;;;21.38;10.27;;;15.20;99.90;;;;;;5083236;28;20036;-77
2023/10/25 06:07:46;;;;;;;20.55;10.35;;;15.20;99.90;;;;;;5087320;28;20035;-78
2023/10/25 06:10:14;;;;;;;20.60;9.82;;;14.90;99.90;;;;;;5088184;28;20044;-76
2023/10/25 06:12:42;;;;;;;19.65;9.88;;;15.20;99.90;;;;;;5091310;28;20090;-76
2023/10/25 06:15:10;;;;;;;19.02;9.07;;;15.00;99.90;;;;;;5084192;28;20892;-77
2023/10/25 06:17:38;;;;;;;24.40;8.80;;;15.00;99.90;;;;;;5083244;28;20160;-78
2023/10/25 06:20:06;;;;;;;20.75;9.10;;;15.40;99.90;;;;;;5084923;28;20032;-78
2023/10/25 06:22:33;;;;;;;21.58;10.65;;;15.00;99.90;;;;;;5083109;28;20040;-77
2023/10/25 06:25:01;;;;;;;24.33;9.85;;;15.00;99.90;;;;;;5068013;28;20121;-77
2023/10/25 06:27:28;;;;;;;23.52;9.00;;;15.30;99.90;;;;;;5088265;28;20040;-76
2023/10/25 06:29:55;;;;;;;18.05;8.98;;;15.60;99.90;;;;;;5087880;28;20043;-76
2023/10/25 06:32:23;;;;;;;21.05;9.60;;;15.10;99.90;;;;;;5085560;28;20032;-77
2023/10/25 06:34:50;;;;;;;20.05;9.20;;;15.50;99.90;;;;;;5084324;28;20506;-75
2023/10/25 06:37:17;;;;;;;22.58;9.30;;;15.10;99.90;;;;;;5088151;28;20667;-78
2023/10/25 06:39:45;;;;;;;21.10;9.15;;;15.00;99.90;;;;;;5089709;28;20395;-77
2023/10/25 06:42:13;;;;;;;21.33;9.10;;;15.30;99.90;;;;;;5089798;28;20528;-78
2023/10/25 06:44:41;;;;;;;18.55;9.00;;;15.70;99.90;;;;;;5086728;28;20414;-78
2023/10/25 06:47:10;;;;;;;21.23;9.82;;;15.70;99.90;;;;;;5084716;28;20745;-78
2023/10/25 06:49:37;;;;;;;20.20;9.00;;;15.90;99.90;;;;;;5088754;28;20216;-77
2023/10/25 06:52:05;;;;;;;22.20;8.93;;;15.80;99.90;;;;;;5090376;28;20111;-77
2023/10/25 06:54:33;;;;;;;24.52;9.15;;;15.60;99.90;;;;;;5088699;28;20395;-77
2023/10/25 06:57:00;;;;;;;17.85;9.10;;;15.80;99.90;;;;;;5091975;28;20040;-78
2023/10/25 06:59:28;;;;;;;21.27;9.32;;;16.00;99.90;;;;;;5086476;28;20036;-78
2023/10/25 07:02:24;;;;;;;20.35;9.18;;;16.10;99.90;;;;;;5090358;28;20044;-78
2023/10/25 07:05:01;;;;;;;18.95;9.43;;;16.20;99.90;;;;;;5069208;28;20436;-77
2023/10/25 07:07:32;;;;;;;24.27;9.40;;;16.40;99.90;;;;;;5087203;28;20044;-80
2023/10/25 07:10:00;;;;;;;23.92;9.00;;;16.50;99.90;;;;;;5088263;28;20070;-77
2023/10/25 07:12:30;;;;;;;18.00;9.15;;;16.50;99.90;;;;;;5084019;28;20039;-76
2023/10/25 07:14:57;;;;;;;22.33;10.10;;;15.90;99.90;;;;;;5088423;28;20070;-77
2023/10/25 07:17:27;;;;;;;19.65;9.25;;;16.20;99.90;;;;;;5090146;28;20066;-77
2023/10/25 07:19:54;;;;;;;17.93;10.40;;;16.40;99.90;;;;;;5088564;28;20135;-78
2023/10/25 07:22:21;;;;;;;30.48;11.85;;;15.90;99.90;;;;;;5087228;28;20040;-77
2023/10/25 07:24:49;;;;;;;23.20;9.20;;;16.10;99.90;;;;;;5071222;28;20052;-77
2023/10/25 07:27:16;;;;;;;22.92;9.40;;;16.50;99.90;;;;;;5087696;28;20111;-77
2023/10/25 07:29:43;;;;;;;21.08;9.40;;;16.60;99.90;;;;;;5081794;28;20048;-77
2023/10/25 07:32:10;;;;;;;27.45;10.73;;;16.30;99.90;;;;;;5083906;28;20040;-77
2023/10/25 07:34:38;;;;;;;24.85;8.98;;;16.20;99.90;;;;;;5085789;28;20123;-78
2023/10/25 07:37:05;;;;;;;18.90;9.45;;;16.30;99.90;;;;;;5073431;28;20036;-78
2023/10/25 07:39:32;;;;;;;18.23;8.50;;;16.40;99.90;;;;;;5089560;28;20450;-77
2023/10/25 07:42:01;;;;;;;26.55;8.88;;;16.40;99.90;;;;;;5069432;28;20040;-78
2023/10/25 07:44:28;;;;;;;21.25;8.93;;;16.80;99.90;;;;;;5065339;28;20055;-78
2023/10/25 07:46:59;;;;;;;23.23;8.95;;;17.10;99.90;;;;;;5088732;28;20105;-77
2023/10/25 07:49:26;;;;;;;;;;;17.10;99.90;;;;;;5084350;28;20072;-77
2023/10/25 07:51:54;;;;;;;23.50;9.77;;;17.50;99.90;;;;;;5088854;28;19981;-78
2023/10/25 07:54:23;;;;;;;21.77;8.50;;;17.60;99.90;;;;;;5085763;28;20429;-78
2023/10/25 07:56:51;;;;;;;25.95;9.55;;;17.80;99.90;;;;;;5086492;28;20125;-76
2023/10/25 07:59:21;;;;;;;23.77;9.13;;;17.90;99.90;;;;;;5087530;28;20036;-77
2023/10/25 08:01:49;;;;;;;22.05;10.07;;;18.00;99.90;;;;;;5087369;28;20070;-75
2023/10/25 08:04:17;;;;;;;23.40;10.52;;;18.00;99.90;;;;;;5086883;28;20048;-75
2023/10/25 08:06:44;;;;;;;25.17;9.75;;;18.00;99.90;;;;;;5082636;28;20127;-75
2023/10/25 08:09:11;;;;;;;19.23;9.77;;;18.10;99.90;;;;;;5084351;28;20483;-77
2023/10/25 08:11:38;;;;;;;18.95;9.55;;;18.20;99.90;;;;;;5080113;28;20417;-77
2023/10/25 08:14:06;;;;;;;23.20;9.00;;;18.20;99.90;;;;;;5073429;28;20148;-75
2023/10/25 08:16:38;;;;;;;26.33;9.02;;;18.30;99.90;;;;;;5080401;28;20048;-74
2023/10/25 08:19:07;;;;;;;24.60;9.13;;;18.20;99.90;;;;;;5088872;28;20364;-75
2023/10/25 08:21:38;;;;;;;26.83;9.63;;;17.60;99.90;;;;;;5083164;28;20055;-75
2023/10/25 08:24:05;;;;;;;20.67;8.07;;;17.90;99.90;;;;;;5071034;28;20383;-79
2023/10/25 08:26:39;;;;;;;21.65;9.10;;;18.00;99.90;;;;;;5085451;28;20082;-76
2023/10/25 08:29:08;;;;;;;21.75;9.43;;;17.80;99.90;;;;;;5066367;28;20038;-76
2023/10/25 08:31:35;;;;;;;21.90;8.63;;;17.50;99.90;;;;;;5081162;28;20064;-74
2023/10/25 08:34:03;;;;;;;21.30;9.02;;;17.60;99.90;;;;;;5088146;28;20457;-77
2023/10/25 08:36:31;;;;;;;17.33;8.32;;;17.80;99.90;;;;;;5085343;28;20044;-76
2023/10/25 08:38:58;;;;;;;25.48;8.45;;;17.80;99.90;;;;;;5088903;28;20414;-74
2023/10/25 08:41:27;;;;;;;24.08;8.70;;;18.10;99.90;;;;;;5087479;28;20040;-79
2023/10/25 08:43:56;;;;;;;23.40;9.40;;;18.20;99.90;;;;;;5069750;28;20075;-73
2023/10/25 08:46:24;;;;;;;18.63;8.85;;;18.10;99.90;;;;;;5086011;28;20507;-75
2023/10/25 08:48:53;;;;;;;27.88;8.60;;;17.80;99.90;;;;;;5086528;28;20119;-75
2023/10/25 08:51:21;;;;;;;23.50;9.77;;;18.00;99.90;;;;;;5086094;28;20105;-75
2023/10/25 08:53:51;;;;;;;25.25;9.88;;;18.20;99.90;;;;;;5088070;28;20506;-75
2023/10/25 08:56:18;;;;;;;20.23;10.48;;;18.30;99.90;;;;;;5089198;28;20036;-79
2023/10/25 08:58:46;;;;;;;26.50;10.55;;;18.50;99.90;;;;;;5084694;28;20462;-73
2023/10/25 09:01:13;;;;;;;23.65;10.68;;;18.60;99.90;;;;;;5083040;28;20040;-77
2023/10/25 09:03:41;;;;;;;25.10;9.95;;;18.60;99.90;;;;;;5083449;28;20123;-80
2023/10/25 09:06:11;;;;;;;21.60;9.50;;;18.60;99.90;;;;;;5083238;28;20028;-73
2023/10/25 09:08:39;;;;;;;19.93;9.33;;;18.60;99.90;;;;;;5081258;28;20052;-74
2023/10/25 09:11:10;;;;;;;27.23;10.40;;;18.70;99.90;;;;;;5068131;28;20475;-76
2023/10/25 09:13:43;;;;;;;22.70;9.43;;;18.80;99.90;;;;;;5079771;28;20404;-76
2023/10/25 09:16:12;;;;;;;26.20;9.30;;;19.00;99.90;;;;;;5079899;28;20050;-74
2023/10/25 09:18:40;;;;;;;27.17;11.00;;;19.30;99.90;;;;;;5082971;28;20041;-74
2023/10/25 09:21:10;;;;;;;24.58;9.43;;;19.50;99.90;;;;;;5084590;28;20040;-75
2023/10/25 09:23:40;;;;;;;22.13;9.25;;;19.50;99.90;;;;;;5084937;28;20040;-75
2023/10/25 09:26:16;;;;;;;21.08;8.70;;;19.80;99.90;;;;;;5082282;28;20546;-77
2023/10/25 09:28:47;;;;;;;22.67;9.05;;;20.00;99.90;;;;;;5083037;28;20054;-83
2023/10/25 09:31:27;;;;;;;21.83;9.65;;;20.00;99.90;;;;;;5067421;28;20028;-78
2023/10/25 09:33:58;;;;;;;16.93;8.20;;;19.20;99.90;;;;;;5085309;28;20474;-75
2023/10/25 09:36:26;;;;;;;23.25;9.43;;;19.50;99.90;;;;;;5082226;28;20127;-76
2023/10/25 09:38:54;;;;;;;20.55;7.97;;;19.60;99.90;;;;;;5065762;28;20036;-75
2023/10/25 09:41:26;;;;;;;22.63;8.32;;;19.20;99.90;;;;;;5083793;28;21596;-79
2023/10/25 09:44:05;;;;;;;18.58;7.93;;;19.10;99.90;;;;;;5086274;28;20048;-76
2023/10/25 09:46:34;;;;;;;19.77;8.02;;;19.00;99.90;;;;;;5088345;28;20036;-78
2023/10/25 09:49:06;;;;;;;20.80;7.43;;;18.90;99.90;;;;;;5086736;28;20043;-77
2023/10/25 09:51:44;;;;;;;21.48;7.93;;;18.90;99.90;;;;;;5087743;28;20457;-75
2023/10/25 09:54:12;;;;;;;17.23;7.03;;;19.30;99.90;;;;;;5089499;28;20645;-78
2023/10/25 09:56:42;;;;;;;14.60;6.88;;;19.00;99.90;;;;;;5093290;28;20101;-76
2023/10/25 09:59:11;;;;;;;23.23;7.88;;;19.00;99.90;;;;;;5077308;28;20047;-76
2023/10/25 10:01:40;;;;;;;23.73;7.22;;;19.20;99.90;;;;;;5086803;28;20058;-79
2023/10/25 10:04:17;;;;;;;19.27;7.97;;;19.10;99.90;;;;;;5078896;28;20471;-79
2023/10/25 10:07:16;;;;;;;22.88;7.32;;;18.90;99.90;;;;;;5084650;28;20043;-75
2023/10/25 10:10:13;;;;;;;21.40;8.10;;;19.20;99.90;;;;;;5089713;28;20055;-81
2023/10/25 10:12:40;;;;;;;23.63;7.45;;;19.40;99.90;;;;;;5080057;28;20051;-77
2023/10/25 10:15:08;;;;;;;22.88;8.15;;;19.20;99.90;;;;;;5086681;28;20491;-79
2023/10/25 10:17:42;;;;;;;17.67;7.30;;;19.10;99.90;;;;;;5083027;28;20036;-78
2023/10/25 10:20:30;;;;;;;18.55;7.55;;;19.20;99.90;;;;;;5060930;28;20064;-82
2023/10/25 10:23:05;;;;;;;23.40;7.15;;;19.10;99.90;;;;;;5087813;28;20044;-78
2023/10/25 10:25:50;;;;;;;19.17;7.82;;;19.10;99.90;;;;;;5087820;28;20051;-81
2023/10/25 10:28:48;;;;;;;19.60;6.97;;;19.10;99.90;;;;;;5081093;28;20036;-83
2023/10/25 10:31:17;;;;;;;23.75;8.63;;;19.00;99.90;;;;;;5086046;28;20033;-78
2023/10/25 10:33:48;;;;;;;17.90;7.25;;;19.20;99.90;;;;;;5085184;28;20036;-78
2023/10/25 10:36:31;;;;;;;21.38;8.52;;;19.30;99.90;;;;;;5087093;28;20498;-76
2023/10/25 10:39:12;;;;;;;18.90;7.20;;;19.30;99.90;;;;;;5072047;28;20032;-78
2023/10/25 10:41:42;;;;;;;17.55;6.93;;;19.10;99.90;;;;;;5063840;28;20669;-80
2023/10/25 10:44:19;;;;;;;22.85;6.95;;;19.30;99.90;;;;;;5068813;28;20049;-81
2023/10/25 10:46:57;;;;;;;16.30;7.43;;;19.40;99.90;;;;;;5089552;28;20429;-83
2023/10/25 10:49:29;;;;;;;21.73;7.15;;;19.40;99.90;;;;;;5084016;28;20078;-77
2023/10/25 10:51:57;;;;;;;18.15;6.47;;;19.20;99.90;;;;;;5070326;28;20063;-77
2023/10/25 10:54:24;;;;;;;25.88;7.97;;;19.10;99.90;;;;;;5085678;28;20035;-78
2023/10/25 10:56:52;;;;;;;23.08;7.63;;;19.20;99.90;;;;;;5090263;28;20056;-77
2023/10/25 10:59:19;;;;;;;19.38;8.13;;;19.40;99.90;;;;;;5085550;28;20038;-79
2023/10/25 11:01:47;;;;;;;25.15;8.60;;;19.50;99.90;;;;;;5091805;28;20044;-77
2023/10/25 11:04:15;;;;;;;22.00;8.43;;;19.40;99.90;;;;;;5090561;28;20051;-77
2023/10/25 11:06:42;;;;;;;21.30;8.35;;;19.20;99.90;;;;;;5088413;28;20039;-78
2023/10/25 11:09:09;;;;;;;26.05;7.93;;;19.00;99.90;;;;;;5070380;28;20081;-75
2023/10/25 11:11:37;;;;;;;17.63;8.20;;;18.70;99.90;;;;;;5081530;28;20448;-81
2023/10/25 11:14:04;;;;;;;19.70;8.23;;;18.50;99.90;;;;;;5086227;28;20028;-78
2023/10/25 11:16:32;;;;;;;26.52;8.38;;;18.60;99.90;;;;;;5088064;28;20499;-77
2023/10/25 11:19:07;;;;;;;26.10;8.43;;;18.70;99.90;;;;;;5090039;28;20036;-78
2023/10/25 11:21:34;;;;;;;21.40;8.70;;;18.80;99.90;;;;;;5086949;28;20039;-76
2023/10/25 11:24:06;;;;;;;20.55;8.82;;;18.50;99.90;;;;;;5089746;28;20056;-75
2023/10/25 11:26:40;;;;;;;18.02;8.25;;;18.80;99.90;;;;;;5090551;28;20040;-77
2023/10/25 11:29:08;;;;;;;20.52;8.57;;;18.90;99.90;;;;;;5088169;28;20032;-76
2023/10/25 11:31:35;;;;;;;21.02;7.85;;;18.60;99.90;;;;;;5086237;28;20039;-78
2023/10/25 11:34:03;;;;;;;24.00;8.95;;;18.30;99.90;;;;;;5090316;28;20064;-75
2023/10/25 11:36:31;;;;;;;21.58;10.02;;;18.30;99.90;;;;;;5083799;28;20036;-78
2023/10/25 11:39:05;;;;;;;22.50;8.27;;;18.50;99.90;;;;;;5089057;28;20135;-79
2023/10/25 11:41:33;;;;;;;20.55;8.60;;;18.60;99.90;;;;;;5090312;28;20044;-76
2023/10/25 11:44:01;;;;;;;16.65;8.13;;;18.70;99.90;;;;;;5086322;28;20049;-79
2023/10/25 11:46:36;;;;;;;28.63;9.13;;;18.40;99.90;;;;;;5084344;28;20051;-76
2023/10/25 11:49:05;;;;;;;26.60;9.25;;;18.10;99.90;;;;;;5085858;28;20128;-77
2023/10/25 11:51:33;;;;;;;23.30;9.60;;;18.00;99.90;;;;;;5081290;28;20052;-74
2023/10/25 11:54:02;;;;;;;22.38;9.63;;;18.00;99.90;;;;;;5087562;28;20040;-80
2023/10/25 11:56:47;;;;;;;24.83;10.68;;;17.90;99.90;;;;;;5085004;28;20072;-74
2023/10/25 11:59:15;;;;;;;33.22;10.40;;;17.90;99.90;;;;;;5080249;28;20040;-80
2023/10/25 12:01:43;;;;;;;23.45;10.63;;;17.80;99.90;;;;;;5086657;28;20076;-75
2023/10/25 12:04:10;;;;;;;24.77;11.23;;;17.90;99.90;;;;;;5085303;28;20181;-75
2023/10/25 12:06:38;;;;;;;24.30;11.30;;;17.90;99.90;;;;;;5074925;28;20044;-77
2023/10/25 12:09:05;;;;;;;29.02;10.85;;;17.90;99.90;;;;;;5068100;28;20040;-77
2023/10/25 12:11:32;;;;;;;25.38;11.63;;;18.00;99.90;;;;;;5084508;28;20162;-76
2023/10/25 12:13:59;;;;;;;27.90;10.63;;;18.10;99.90;;;;;;5076898;28;20052;-75
2023/10/25 12:16:27;;;;;;;24.98;11.10;;;17.90;99.90;;;;;;5068254;28;20055;-77
2023/10/25 12:18:54;;;;;;;31.52;11.07;;;18.00;99.90;;;;;;5082910;28;20403;-76
2023/10/25 12:21:21;;;;;;;22.00;9.88;;;18.30;99.90;;;;;;5087741;28;20115;-75
2023/10/25 12:23:48;;;;;;;23.13;10.65;;;18.50;99.90;;;;;;5086367;28;20050;-76
2023/10/25 12:26:17;;;;;;;31.05;11.80;;;18.50;99.90;;;;;;5081370;28;20032;-76
2023/10/25 12:28:44;;;;;;;27.08;10.20;;;18.70;99.90;;;;;;5084426;28;20036;-74
2023/10/25 12:31:11;;;;;;;20.30;9.38;;;18.90;99.90;;;;;;5064919;28;20278;-76
2023/10/25 12:33:39;;;;;;;24.38;10.02;;;19.10;99.90;;;;;;5082664;28;20105;-77
2023/10/25 12:36:06;;;;;;;20.67;9.48;;;19.80;99.90;;;;;;5081274;28;20036;-77
2023/10/25 12:38:34;;;;;;;25.05;9.98;;;21.80;99.90;;;;;;5085689;28;20036;-76
2023/10/25 12:41:01;;;;;;;23.83;9.35;;;23.70;99.90;;;;;;5084083;28;20062;-79
2023/10/25 12:43:28;;;;;;;24.52;8.75;;;25.60;99.90;;;;;;5084569;28;20141;-74
2023/10/25 12:45:57;;;;;;;25.95;9.50;;;27.20;99.90;;;;;;5084054;28;20032;-75